sensor_id;sensor_type;location;lat;lon;timestamp;pressure;altitude;pressure_sealevel;temperature;humidity
41467;BME280;27205;53.690;19.948;2022-08-19T00:04:34;99721.21;;;22.75;57.27
41467;BME280;27205;53.690;19.948;2022-08-19T00:09:39;99721.09;;;22.82;57.45
41467;BME280;27205;53.690;19.948;2022-08-19T00:14:42;99712.95;;;22.87;57.77
41467;BME280;27205;53.690;19.948;2022-08-19T00:19:46;99703.83;;;22.87;57.81
41467;BME280;27205;53.690;19.948;2022-08-19T00:24:49;99704.02;;;22.81;58.01
41467;BME280;27205;53.690;19.948;2022-08-19T00:29:53;99701.11;;;22.73;58.12
41467;BME280;27205;53.690;19.948;2022-08-19T00:34:56;99712.96;;;22.67;58.42
41467;BME280;27205;53.690;19.948;2022-08-19T00:40:00;99721.15;;;22.61;58.63
41467;BME280;27205;53.690;19.948;2022-08-19T00:45:11;99724.20;;;22.57;58.71
41467;BME280;27205;53.690;19.948;2022-08-19T00:50:17;99718.63;;;22.57;59.09
41467;BME280;27205;53.690;19.948;2022-08-19T00:55:24;99713.84;;;22.57;59.66
41467;BME280;27205;53.690;19.948;2022-08-19T01:00:29;99719.10;;;22.53;59.80
41467;BME280;27205;53.690;19.948;2022-08-19T01:05:34;99716.02;;;22.49;60.03
41467;BME280;27205;53.690;19.948;2022-08-19T01:10:41;99717.90;;;22.39;60.32
41467;BME280;27205;53.690;19.948;2022-08-19T01:15:50;99717.34;;;22.28;60.24
41467;BME280;27205;53.690;19.948;2022-08-19T01:20:58;99718.77;;;22.20;60.72
41467;BME280;27205;53.690;19.948;2022-08-19T01:26:05;99719.17;;;22.11;60.69
41467;BME280;27205;53.690;19.948;2022-08-19T01:31:13;99724.16;;;22.03;61.13
41467;BME280;27205;53.690;19.948;2022-08-19T01:36:35;99722.46;;;21.96;61.40
41467;BME280;27205;53.690;19.948;2022-08-19T01:41:39;99725.42;;;21.91;61.71
41467;BME280;27205;53.690;19.948;2022-08-19T01:46:43;99720.27;;;21.89;61.88
41467;BME280;27205;53.690;19.948;2022-08-19T01:51:47;99715.25;;;21.88;62.18
41467;BME280;27205;53.690;19.948;2022-08-19T01:56:56;99719.40;;;21.84;62.47
41467;BME280;27205;53.690;19.948;2022-08-19T02:02:02;99718.84;;;21.78;62.73
41467;BME280;27205;53.690;19.948;2022-08-19T02:07:07;99715.70;;;21.70;62.97
41467;BME280;27205;53.690;19.948;2022-08-19T02:12:11;99717.38;;;21.64;63.40
41467;BME280;27205;53.690;19.948;2022-08-19T02:17:14;99714.73;;;21.60;63.59
41467;BME280;27205;53.690;19.948;2022-08-19T02:22:17;99708.30;;;21.57;63.72
41467;BME280;27205;53.690;19.948;2022-08-19T02:27:22;99707.91;;;21.56;63.97
41467;BME280;27205;53.690;19.948;2022-08-19T02:32:25;99707.14;;;21.57;64.20
41467;BME280;27205;53.690;19.948;2022-08-19T02:37:28;99705.61;;;21.57;64.34
41467;BME280;27205;53.690;19.948;2022-08-19T02:42:51;99707.03;;;21.55;64.50
41467;BME280;27205;53.690;19.948;2022-08-19T02:47:55;99702.40;;;21.52;64.56
41467;BME280;27205;53.690;19.948;2022-08-19T02:52:59;99713.48;;;21.48;65.01
41467;BME280;27205;53.690;19.948;2022-08-19T02:58:03;99713.33;;;21.46;65.01
41467;BME280;27205;53.690;19.948;2022-08-19T03:03:10;99711.05;;;21.46;65.14
41467;BME280;27205;53.690;19.948;2022-08-19T03:08:13;99709.78;;;21.46;65.36
41467;BME280;27205;53.690;19.948;2022-08-19T03:13:17;99705.96;;;21.49;65.55
41467;BME280;27205;53.690;19.948;2022-08-19T03:18:21;99698.85;;;21.52;65.65
41467;BME280;27205;53.690;19.948;2022-08-19T03:23:25;99701.50;;;21.53;65.80
41467;BME280;27205;53.690;19.948;2022-08-19T03:28:28;99712.75;;;21.49;65.94
41467;BME280;27205;53.690;19.948;2022-08-19T03:33:32;99710.61;;;21.45;66.21
41467;BME280;27205;53.690;19.948;2022-08-19T03:38:42;99712.45;;;21.43;66.21
41467;BME280;27205;53.690;19.948;2022-08-19T03:43:46;99710.30;;;21.41;66.16
41467;BME280;27205;53.690;19.948;2022-08-19T03:48:52;99706.90;;;21.41;66.50
41467;BME280;27205;53.690;19.948;2022-08-19T03:53:58;99700.39;;;21.43;66.72
41467;BME280;27205;53.690;19.948;2022-08-19T03:59:03;99701.42;;;21.47;66.94
41467;BME280;27205;53.690;19.948;2022-08-19T04:04:07;99706.14;;;21.52;66.97
41467;BME280;27205;53.690;19.948;2022-08-19T04:09:11;99715.66;;;21.59;67.17
41467;BME280;27205;53.690;19.948;2022-08-19T04:14:18;99716.91;;;21.67;67.13
41467;BME280;27205;53.690;19.948;2022-08-19T04:19:22;99725.34;;;21.77;67.14
41467;BME280;27205;53.690;19.948;2022-08-19T04:24:27;99730.67;;;21.87;67.42
41467;BME280;27205;53.690;19.948;2022-08-19T04:29:32;99733.80;;;21.97;67.46
41467;BME280;27205;53.690;19.948;2022-08-19T04:34:36;99734.64;;;22.09;67.44
41467;BME280;27205;53.690;19.948;2022-08-19T04:40:00;99733.04;;;22.24;67.67
41467;BME280;27205;53.690;19.948;2022-08-19T04:45:22;99731.83;;;22.43;67.49
41467;BME280;27205;53.690;19.948;2022-08-19T04:50:26;99727.44;;;22.62;67.45
41467;BME280;27205;53.690;19.948;2022-08-19T04:55:29;99725.25;;;22.87;67.27
41467;BME280;27205;53.690;19.948;2022-08-19T05:00:39;99724.02;;;23.12;67.18
41467;BME280;27205;53.690;19.948;2022-08-19T05:05:47;99719.50;;;23.36;67.11
41467;BME280;27205;53.690;19.948;2022-08-19T05:10:51;99716.92;;;23.62;66.76
41467;BME280;27205;53.690;19.948;2022-08-19T05:15:56;99720.27;;;23.87;66.53
41467;BME280;27205;53.690;19.948;2022-08-19T05:21:06;99712.25;;;24.10;66.22
41467;BME280;27205;53.690;19.948;2022-08-19T05:26:29;99704.52;;;24.33;66.13
41467;BME280;27205;53.690;19.948;2022-08-19T05:31:33;99710.94;;;24.52;65.82
41467;BME280;27205;53.690;19.948;2022-08-19T05:36:40;99715.23;;;24.68;65.54
41467;BME280;27205;53.690;19.948;2022-08-19T05:41:48;99715.42;;;24.75;65.43
41467;BME280;27205;53.690;19.948;2022-08-19T05:46:53;99721.20;;;24.82;65.29
41467;BME280;27205;53.690;19.948;2022-08-19T05:51:56;99722.92;;;24.87;65.27
41467;BME280;27205;53.690;19.948;2022-08-19T05:57:00;99718.52;;;24.91;65.15
41467;BME280;27205;53.690;19.948;2022-08-19T06:02:05;99728.95;;;24.96;65.01
41467;BME280;27205;53.690;19.948;2022-08-19T06:07:09;99742.25;;;25.03;65.10
41467;BME280;27205;53.690;19.948;2022-08-19T06:12:14;99756.97;;;25.10;64.94
41467;BME280;27205;53.690;19.948;2022-08-19T06:17:20;99760.70;;;25.22;64.69
41467;BME280;27205;53.690;19.948;2022-08-19T06:22:26;99759.04;;;25.39;64.55
41467;BME280;27205;53.690;19.948;2022-08-19T06:27:30;99753.50;;;25.58;64.40
41467;BME280;27205;53.690;19.948;2022-08-19T06:32:34;99755.55;;;25.81;64.09
41467;BME280;27205;53.690;19.948;2022-08-19T06:37:45;99755.77;;;26.04;63.79
41467;BME280;27205;53.690;19.948;2022-08-19T06:42:48;99763.13;;;26.32;63.57
41467;BME280;27205;53.690;19.948;2022-08-19T06:47:57;99761.73;;;26.58;62.96
41467;BME280;27205;53.690;19.948;2022-08-19T06:53:00;99761.26;;;26.83;62.70
41467;BME280;27205;53.690;19.948;2022-08-19T06:58:06;99761.65;;;27.09;62.29
41467;BME280;27205;53.690;19.948;2022-08-19T07:03:09;99756.05;;;27.33;61.97
41467;BME280;27205;53.690;19.948;2022-08-19T07:08:15;99747.89;;;27.51;61.34
41467;BME280;27205;53.690;19.948;2022-08-19T07:13:20;99747.59;;;27.62;60.83
41467;BME280;27205;53.690;19.948;2022-08-19T07:18:24;99742.31;;;27.78;60.46
41467;BME280;27205;53.690;19.948;2022-08-19T07:23:28;99740.10;;;27.99;60.11
41467;BME280;27205;53.690;19.948;2022-08-19T07:28:32;99741.00;;;28.29;59.54
41467;BME280;27205;53.690;19.948;2022-08-19T07:33:36;99744.80;;;28.50;59.12
41467;BME280;27205;53.690;19.948;2022-08-19T07:38:43;99754.67;;;28.67;58.69
41467;BME280;27205;53.690;19.948;2022-08-19T07:43:47;99755.14;;;28.83;57.94
41467;BME280;27205;53.690;19.948;2022-08-19T07:48:52;99752.98;;;29.04;57.38
41467;BME280;27205;53.690;19.948;2022-08-19T07:53:55;99752.52;;;29.23;56.98
41467;BME280;27205;53.690;19.948;2022-08-19T07:58:59;99745.35;;;29.38;56.68
41467;BME280;27205;53.690;19.948;2022-08-19T08:04:04;99741.95;;;29.66;55.81
41467;BME280;27205;53.690;19.948;2022-08-19T08:09:27;99747.65;;;29.95;55.32
41467;BME280;27205;53.690;19.948;2022-08-19T08:14:37;99759.59;;;30.23;54.75
41467;BME280;27205;53.690;19.948;2022-08-19T08:19:46;99757.71;;;30.48;53.93
41467;BME280;27205;53.690;19.948;2022-08-19T08:24:53;99759.42;;;30.74;53.26
41467;BME280;27205;53.690;19.948;2022-08-19T08:29:57;99760.08;;;30.91;52.29
41467;BME280;27205;53.690;19.948;2022-08-19T08:35:06;99757.01;;;31.04;51.59
41467;BME280;27205;53.690;19.948;2022-08-19T08:45:30;99753.85;;;31.49;50.07
41467;BME280;27205;53.690;19.948;2022-08-19T08:50:45;99753.65;;;31.81;49.52
41467;BME280;27205;53.690;19.948;2022-08-19T08:55:51;99753.50;;;32.02;48.60
41467;BME280;27205;53.690;19.948;2022-08-19T09:00:54;99754.29;;;32.22;47.99
41467;BME280;27205;53.690;19.948;2022-08-19T09:06:09;99752.52;;;32.33;46.95
41467;BME280;27205;53.690;19.948;2022-08-19T09:11:25;99745.30;;;32.49;46.43
41467;BME280;27205;53.690;19.948;2022-08-19T09:16:46;99735.77;;;32.74;45.88
41467;BME280;27205;53.690;19.948;2022-08-19T09:21:51;99744.15;;;32.91;45.46
41467;BME280;27205;53.690;19.948;2022-08-19T09:26:54;99740.35;;;33.05;44.79
41467;BME280;27205;53.690;19.948;2022-08-19T09:31:59;99743.05;;;33.27;44.23
41467;BME280;27205;53.690;19.948;2022-08-19T09:37:02;99746.63;;;33.39;43.38
41467;BME280;27205;53.690;19.948;2022-08-19T09:42:10;99748.00;;;33.40;42.34
41467;BME280;27205;53.690;19.948;2022-08-19T09:47:21;99744.73;;;33.43;41.77
41467;BME280;27205;53.690;19.948;2022-08-19T09:52:24;99742.13;;;33.45;41.49
41467;BME280;27205;53.690;19.948;2022-08-19T09:57:35;99729.81;;;33.53;41.24
41467;BME280;27205;53.690;19.948;2022-08-19T10:02:38;99729.98;;;33.50;40.67
41467;BME280;27205;53.690;19.948;2022-08-19T10:07:41;99730.98;;;33.53;40.79
41467;BME280;27205;53.690;19.948;2022-08-19T10:12:44;99731.49;;;33.55;40.21
41467;BME280;27205;53.690;19.948;2022-08-19T10:17:50;99725.16;;;33.51;39.91
41467;BME280;27205;53.690;19.948;2022-08-19T10:22:57;99725.95;;;33.66;39.87
41467;BME280;27205;53.690;19.948;2022-08-19T10:28:04;99715.71;;;33.72;39.51
41467;BME280;27205;53.690;19.948;2022-08-19T10:33:12;99717.48;;;33.84;39.25
41467;BME280;27205;53.690;19.948;2022-08-19T10:38:16;99719.29;;;33.94;38.63
41467;BME280;27205;53.690;19.948;2022-08-19T10:43:19;99709.90;;;33.95;38.35
41467;BME280;27205;53.690;19.948;2022-08-19T10:48:23;99704.79;;;34.15;38.26
41467;BME280;27205;53.690;19.948;2022-08-19T10:53:26;99701.37;;;34.32;38.06
41467;BME280;27205;53.690;19.948;2022-08-19T10:58:30;99696.61;;;34.43;37.75
41467;BME280;27205;53.690;19.948;2022-08-19T11:03:33;99682.21;;;34.44;37.37
41467;BME280;27205;53.690;19.948;2022-08-19T11:08:37;99677.94;;;34.53;37.10
41467;BME280;27205;53.690;19.948;2022-08-19T11:13:41;99661.48;;;34.62;36.81
41467;BME280;27205;53.690;19.948;2022-08-19T11:18:48;99657.94;;;34.65;36.98
41467;BME280;27205;53.690;19.948;2022-08-19T11:23:54;99657.08;;;34.74;36.36
41467;BME280;27205;53.690;19.948;2022-08-19T11:28:59;99659.77;;;34.95;36.10
41467;BME280;27205;53.690;19.948;2022-08-19T11:34:05;99662.83;;;35.11;34.97
41467;BME280;27205;53.690;19.948;2022-08-19T11:39:11;99662.43;;;35.25;34.35
41467;BME280;27205;53.690;19.948;2022-08-19T11:44:14;99661.52;;;35.36;33.96
41467;BME280;27205;53.690;19.948;2022-08-19T11:49:18;99662.15;;;35.47;33.71
41467;BME280;27205;53.690;19.948;2022-08-19T11:54:22;99654.30;;;35.61;33.48
41467;BME280;27205;53.690;19.948;2022-08-19T11:59:25;99647.77;;;35.72;33.03
41467;BME280;27205;53.690;19.948;2022-08-19T12:04:31;99636.15;;;35.85;32.89
41467;BME280;27205;53.690;19.948;2022-08-19T12:09:34;99624.94;;;35.88;32.52
41467;BME280;27205;53.690;19.948;2022-08-19T12:14:43;99629.39;;;35.84;32.45
41467;BME280;27205;53.690;19.948;2022-08-19T12:19:49;99626.09;;;36.08;32.44
41467;BME280;27205;53.690;19.948;2022-08-19T12:24:52;99617.85;;;36.24;32.52
41467;BME280;27205;53.690;19.948;2022-08-19T12:29:56;99615.44;;;36.32;32.40
41467;BME280;27205;53.690;19.948;2022-08-19T12:35:00;99624.89;;;36.38;32.27
41467;BME280;27205;53.690;19.948;2022-08-19T12:40:04;99620.41;;;36.48;32.46
41467;BME280;27205;53.690;19.948;2022-08-19T12:45:10;99610.09;;;36.51;32.35
41467;BME280;27205;53.690;19.948;2022-08-19T12:50:13;99604.50;;;36.59;32.00
41467;BME280;27205;53.690;19.948;2022-08-19T12:55:17;99602.15;;;36.88;32.06
41467;BME280;27205;53.690;19.948;2022-08-19T13:00:22;99606.81;;;37.21;31.91
41467;BME280;27205;53.690;19.948;2022-08-19T13:05:28;99595.41;;;37.59;31.50
41467;BME280;27205;53.690;19.948;2022-08-19T13:10:34;99593.93;;;37.50;31.08
41467;BME280;27205;53.690;19.948;2022-08-19T13:15:40;99594.99;;;37.35;31.18
41467;BME280;27205;53.690;19.948;2022-08-19T13:20:44;99599.91;;;37.36;30.85
41467;BME280;27205;53.690;19.948;2022-08-19T13:25:59;99591.11;;;37.39;30.48
41467;BME280;27205;53.690;19.948;2022-08-19T13:31:02;99581.98;;;37.57;30.49
41467;BME280;27205;53.690;19.948;2022-08-19T13:36:36;99573.35;;;37.78;30.02
41467;BME280;27205;53.690;19.948;2022-08-19T13:41:43;99569.21;;;38.10;29.63
41467;BME280;27205;53.690;19.948;2022-08-19T13:46:50;99571.80;;;38.55;29.17
41467;BME280;27205;53.690;19.948;2022-08-19T13:51:56;99577.85;;;38.74;28.57
41467;BME280;27205;53.690;19.948;2022-08-19T13:56:59;99576.35;;;38.58;28.46
41467;BME280;27205;53.690;19.948;2022-08-19T14:02:02;99579.35;;;38.39;28.22
41467;BME280;27205;53.690;19.948;2022-08-19T14:07:08;99583.50;;;38.16;28.32
41467;BME280;27205;53.690;19.948;2022-08-19T14:12:12;99585.09;;;38.08;28.43
41467;BME280;27205;53.690;19.948;2022-08-19T14:17:15;99579.05;;;38.62;27.92
41467;BME280;27205;53.690;19.948;2022-08-19T14:22:18;99574.37;;;39.09;27.49
41467;BME280;27205;53.690;19.948;2022-08-19T14:27:24;99574.63;;;38.44;27.59
41467;BME280;27205;53.690;19.948;2022-08-19T14:32:30;99567.38;;;37.94;27.61
41467;BME280;27205;53.690;19.948;2022-08-19T14:37:34;99567.00;;;37.65;27.20
41467;BME280;27205;53.690;19.948;2022-08-19T14:42:47;99563.48;;;37.38;27.29
41467;BME280;27205;53.690;19.948;2022-08-19T14:47:51;99560.74;;;37.63;27.07
41467;BME280;27205;53.690;19.948;2022-08-19T14:53:04;99566.34;;;39.51;26.60
41467;BME280;27205;53.690;19.948;2022-08-19T14:58:15;99580.70;;;41.82;25.63
41467;BME280;27205;53.690;19.948;2022-08-19T15:03:32;99580.46;;;44.04;24.21
41467;BME280;27205;53.690;19.948;2022-08-19T15:08:36;99587.66;;;46.66;22.96
41467;BME280;27205;53.690;19.948;2022-08-19T15:13:43;99587.45;;;49.62;21.14
41467;BME280;27205;53.690;19.948;2022-08-19T15:18:49;99592.60;;;51.97;20.09
41467;BME280;27205;53.690;19.948;2022-08-19T15:23:55;99591.48;;;54.09;18.68
41467;BME280;27205;53.690;19.948;2022-08-19T15:29:00;99589.64;;;55.40;18.15
41467;BME280;27205;53.690;19.948;2022-08-19T15:34:04;99595.54;;;56.35;16.82
41467;BME280;27205;53.690;19.948;2022-08-19T15:39:08;99595.27;;;56.47;15.68
41467;BME280;27205;53.690;19.948;2022-08-19T15:44:15;99588.59;;;54.66;15.43
41467;BME280;27205;53.690;19.948;2022-08-19T15:49:21;99570.13;;;51.73;15.55
41467;BME280;27205;53.690;19.948;2022-08-19T15:54:24;99568.88;;;51.06;15.97
41467;BME280;27205;53.690;19.948;2022-08-19T15:59:28;99570.01;;;51.80;15.62
41467;BME280;27205;53.690;19.948;2022-08-19T16:04:52;99568.77;;;53.13;15.28
41467;BME280;27205;53.690;19.948;2022-08-19T16:10:14;99577.77;;;53.85;15.04
41467;BME280;27205;53.690;19.948;2022-08-19T16:15:29;99571.73;;;54.01;14.79
41467;BME280;27205;53.690;19.948;2022-08-19T16:20:33;99568.77;;;53.36;14.76
41467;BME280;27205;53.690;19.948;2022-08-19T16:25:37;99567.24;;;52.76;14.77
41467;BME280;27205;53.690;19.948;2022-08-19T16:30:41;99562.59;;;52.49;14.79
41467;BME280;27205;53.690;19.948;2022-08-19T16:35:52;99556.10;;;52.07;14.94
41467;BME280;27205;53.690;19.948;2022-08-19T16:41:06;99556.07;;;51.07;15.12
41467;BME280;27205;53.690;19.948;2022-08-19T16:46:11;99549.04;;;50.13;15.40
41467;BME280;27205;53.690;19.948;2022-08-19T16:51:21;99545.44;;;49.22;15.72
41467;BME280;27205;53.690;19.948;2022-08-19T16:56:25;99546.82;;;48.23;16.29
41467;BME280;27205;53.690;19.948;2022-08-19T17:01:30;99548.10;;;46.54;16.91
41467;BME280;27205;53.690;19.948;2022-08-19T17:06:33;99555.55;;;44.70;17.46
41467;BME280;27205;53.690;19.948;2022-08-19T17:11:38;99564.34;;;43.05;18.51
41467;BME280;27205;53.690;19.948;2022-08-19T17:16:41;99564.75;;;41.25;19.34
41467;BME280;27205;53.690;19.948;2022-08-19T17:21:45;99565.61;;;39.53;20.46
41467;BME280;27205;53.690;19.948;2022-08-19T17:26:49;99563.48;;;37.90;21.72
41467;BME280;27205;53.690;19.948;2022-08-19T17:31:52;99573.34;;;36.56;22.52
41467;BME280;27205;53.690;19.948;2022-08-19T17:36:55;99574.42;;;35.43;23.59
41467;BME280;27205;53.690;19.948;2022-08-19T17:41:58;99570.98;;;34.48;24.36
41467;BME280;27205;53.690;19.948;2022-08-19T17:47:04;99569.17;;;33.63;25.11
41467;BME280;27205;53.690;19.948;2022-08-19T17:52:08;99567.88;;;32.84;26.25
41467;BME280;27205;53.690;19.948;2022-08-19T17:57:11;99570.65;;;32.16;26.92
41467;BME280;27205;53.690;19.948;2022-08-19T18:02:15;99578.77;;;31.52;27.74
41467;BME280;27205;53.690;19.948;2022-08-19T18:07:24;99583.71;;;30.92;28.46
41467;BME280;27205;53.690;19.948;2022-08-19T18:12:27;99584.58;;;30.39;29.61
41467;BME280;27205;53.690;19.948;2022-08-19T18:17:30;99594.54;;;29.97;30.32
41467;BME280;27205;53.690;19.948;2022-08-19T18:22:37;99598.38;;;29.61;30.93
41467;BME280;27205;53.690;19.948;2022-08-19T18:27:40;99599.75;;;29.25;31.44
41467;BME280;27205;53.690;19.948;2022-08-19T18:32:45;99605.55;;;28.92;32.31
41467;BME280;27205;53.690;19.948;2022-08-19T18:37:51;99603.37;;;28.65;33.01
41467;BME280;27205;53.690;19.948;2022-08-19T18:42:54;99600.52;;;28.43;33.45
41467;BME280;27205;53.690;19.948;2022-08-19T18:48:35;99601.83;;;28.22;34.15
41467;BME280;27205;53.690;19.948;2022-08-19T18:53:59;99597.79;;;28.02;34.64
41467;BME280;27205;53.690;19.948;2022-08-19T18:59:03;99588.97;;;27.88;35.31
41467;BME280;27205;53.690;19.948;2022-08-19T19:04:08;99587.64;;;27.74;35.99
41467;BME280;27205;53.690;19.948;2022-08-19T19:09:19;99583.89;;;27.60;36.57
41467;BME280;27205;53.690;19.948;2022-08-19T19:14:32;99588.22;;;27.50;37.05
41467;BME280;27205;53.690;19.948;2022-08-19T19:19:52;99592.81;;;27.44;37.59
41467;BME280;27205;53.690;19.948;2022-08-19T19:24:56;99592.18;;;27.33;37.81
41467;BME280;27205;53.690;19.948;2022-08-19T19:30:01;99589.50;;;27.24;38.38
41467;BME280;27205;53.690;19.948;2022-08-19T19:35:06;99587.20;;;27.18;38.58
41467;BME280;27205;53.690;19.948;2022-08-19T19:40:11;99584.98;;;27.11;38.97
41467;BME280;27205;53.690;19.948;2022-08-19T19:45:15;99588.70;;;27.02;39.53
41467;BME280;27205;53.690;19.948;2022-08-19T19:50:18;99582.73;;;26.91;39.97
41467;BME280;27205;53.690;19.948;2022-08-19T19:55:22;99579.98;;;26.87;40.23
41467;BME280;27205;53.690;19.948;2022-08-19T20:00:28;99582.56;;;26.83;40.59
41467;BME280;27205;53.690;19.948;2022-08-19T20:05:31;99585.00;;;26.84;41.01
41467;BME280;27205;53.690;19.948;2022-08-19T20:10:35;99580.05;;;26.85;41.14
41467;BME280;27205;53.690;19.948;2022-08-19T20:15:39;99584.96;;;26.89;41.55
41467;BME280;27205;53.690;19.948;2022-08-19T20:20:44;99590.88;;;26.89;41.61
41467;BME280;27205;53.690;19.948;2022-08-19T20:25:52;99588.20;;;26.89;41.70
41467;BME280;27205;53.690;19.948;2022-08-19T20:30:56;99587.86;;;26.86;41.95
41467;BME280;27205;53.690;19.948;2022-08-19T20:36:00;99588.52;;;26.85;41.91
41467;BME280;27205;53.690;19.948;2022-08-19T20:41:04;99587.84;;;26.88;42.04
41467;BME280;27205;53.690;19.948;2022-08-19T20:46:07;99590.30;;;26.85;42.24
41467;BME280;27205;53.690;19.948;2022-08-19T20:51:11;99596.66;;;26.83;42.32
41467;BME280;27205;53.690;19.948;2022-08-19T20:56:15;99603.55;;;26.77;42.50
41467;BME280;27205;53.690;19.948;2022-08-19T21:01:18;99609.44;;;26.77;42.71
41467;BME280;27205;53.690;19.948;2022-08-19T21:06:21;99616.19;;;26.71;42.80
41467;BME280;27205;53.690;19.948;2022-08-19T21:11:25;99613.54;;;26.64;42.88
41467;BME280;27205;53.690;19.948;2022-08-19T21:16:29;99616.85;;;26.63;43.16
41467;BME280;27205;53.690;19.948;2022-08-19T21:21:34;99615.48;;;26.64;43.25
41467;BME280;27205;53.690;19.948;2022-08-19T21:26:38;99611.83;;;26.61;43.50
41467;BME280;27205;53.690;19.948;2022-08-19T21:31:41;99615.54;;;26.57;43.41
41467;BME280;27205;53.690;19.948;2022-08-19T21:36:45;99610.27;;;26.57;43.73
41467;BME280;27205;53.690;19.948;2022-08-19T21:41:48;99607.97;;;26.57;43.89
41467;BME280;27205;53.690;19.948;2022-08-19T21:46:51;99601.58;;;26.54;43.84
41467;BME280;27205;53.690;19.948;2022-08-19T21:51:54;99603.34;;;26.51;43.90
41467;BME280;27205;53.690;19.948;2022-08-19T21:56:58;99598.73;;;26.48;44.19
41467;BME280;27205;53.690;19.948;2022-08-19T22:02:01;99609.56;;;26.44;44.22
41467;BME280;27205;53.690;19.948;2022-08-19T22:07:21;99603.74;;;26.42;44.41
41467;BME280;27205;53.690;19.948;2022-08-19T22:12:31;99604.95;;;26.40;44.44
41467;BME280;27205;53.690;19.948;2022-08-19T22:17:35;99602.09;;;26.38;44.51
41467;BME280;27205;53.690;19.948;2022-08-19T22:22:47;99618.71;;;26.34;44.79
41467;BME280;27205;53.690;19.948;2022-08-19T22:27:52;99627.34;;;26.31;45.14
41467;BME280;27205;53.690;19.948;2022-08-19T22:33:11;99622.07;;;26.28;45.48
41467;BME280;27205;53.690;19.948;2022-08-19T22:38:15;99609.48;;;26.24;45.47
41467;BME280;27205;53.690;19.948;2022-08-19T22:43:19;99596.27;;;26.23;45.70
41467;BME280;27205;53.690;19.948;2022-08-19T22:48:26;99590.02;;;26.19;45.76
41467;BME280;27205;53.690;19.948;2022-08-19T22:53:31;99582.90;;;26.15;45.82
41467;BME280;27205;53.690;19.948;2022-08-19T22:58:35;99599.11;;;26.11;46.24
41467;BME280;27205;53.690;19.948;2022-08-19T23:03:43;99611.37;;;26.04;46.32
41467;BME280;27205;53.690;19.948;2022-08-19T23:08:46;99616.77;;;25.97;46.70
41467;BME280;27205;53.690;19.948;2022-08-19T23:13:50;99607.57;;;25.90;47.91
41467;BME280;27205;53.690;19.948;2022-08-19T23:18:53;99621.17;;;25.69;48.76
41467;BME280;27205;53.690;19.948;2022-08-19T23:23:57;99644.77;;;25.48;49.39
41467;BME280;27205;53.690;19.948;2022-08-19T23:29:01;99658.95;;;25.27;50.09
41467;BME280;27205;53.690;19.948;2022-08-19T23:34:23;99663.91;;;25.09;51.16
41467;BME280;27205;53.690;19.948;2022-08-19T23:39:26;99662.02;;;24.94;51.92
41467;BME280;27205;53.690;19.948;2022-08-19T23:44:31;99668.71;;;24.84;52.55
41467;BME280;27205;53.690;19.948;2022-08-19T23:49:36;99681.07;;;24.74;53.21
41467;BME280;27205;53.690;19.948;2022-08-19T23:54:39;99683.14;;;24.59;53.84
41467;BME280;27205;53.690;19.948;2022-08-19T23:59:45;99700.00;;;24.32;55.29
